Udaipur Airport
VAUD : now visible

Airfield :











YOU CAN JOIN US ON...

 
LOGIN :

Register | Disclaimer

   EN    FR    IT 

 









Legend :    VFR   Marginal VFR   IFR   Intensive IFR   Very Intensive IFR
Visi :
Ceiling :
>= 8 km
>= 3000ft
5 to 8 km
1000 to 3000 ft
1500m to 5 km
500 to 1000 ft
800 to 1500m
200 to 500 ft
< 800m
< 200 ft
Symbols :   Thunderstorms  Fog  Heavy snow  Heavy precipitations  Wind > 20 kt






- Airport Elevation : 1684 ft
- IATA code : UDR


VAUD - Udaipur

CURRENT METAR :
  • 150400Z 05006KT 3000 HZ FEW100 16/08 Q1022 NOSIG

EXPIRED METARs :
  • 150300Z 05005KT 2000 HZ FEW100 12/08 Q1021 NOSIG
  • 150230Z 00000KT 1800 BR FEW100 10/08 Q1021 NOSIG
  • 150200Z 00000KT 1800 BR FEW100 10/08 Q1020 NOSIG
  • 150130Z 01002KT 1800 BR FEW100 10/09 Q1020 TEMPO 1500 BR

TAF TAF VAUD
Valid from the 15 at 03:00 until the 15 at 12:00 UTC


150200Z 1503/1512 36005KT 1500 BR HZ FEW100
BECMG 1505/1507 05008KT 3000 HZ



MET'MAP, your aeronautical weather chart ! - Copyright ORBIFLY December 2007 - Disclaimer

ORBIFLY MET'MAP TEAM :

Programming & Development : Alexandra Zaïnal
Concept & original design : Baudouin d'Aumeries
Assistance for programming : Marc-Olivier Méhu
Technical & hardware support : Manuel Goepfert

Contact : metmap@orbifly.com




SOURCES & CREDITS :

   NOAA       Earth
Advisory